sensor_id;sensor_type;location;lat;lon;timestamp;temperature;humidity
23769;DHT22;12064;50.890;5.424;2023-05-10T00:02:18;20.30;92.10
23769;DHT22;12064;50.890;5.424;2023-05-10T00:11:09;20.30;92.10
23769;DHT22;12064;50.890;5.424;2023-05-10T00:20:00;20.30;92.10
23769;DHT22;12064;50.890;5.424;2023-05-10T00:28:53;20.30;92.20
23769;DHT22;12064;50.890;5.424;2023-05-10T00:37:44;20.30;92.30
23769;DHT22;12064;50.890;5.424;2023-05-10T00:46:35;20.30;92.30
23769;DHT22;12064;50.890;5.424;2023-05-10T00:55:26;20.20;92.40
23769;DHT22;12064;50.890;5.424;2023-05-10T01:04:20;20.20;92.40
23769;DHT22;12064;50.890;5.424;2023-05-10T01:13:29;20.20;92.50
23769;DHT22;12064;50.890;5.424;2023-05-10T01:50:04;20.20;92.70
23769;DHT22;12064;50.890;5.424;2023-05-10T01:58:57;20.20;92.70
23769;DHT22;12064;50.890;5.424;2023-05-10T02:07:51;20.20;92.70
23769;DHT22;12064;50.890;5.424;2023-05-10T02:16:43;20.10;92.80
23769;DHT22;12064;50.890;5.424;2023-05-10T02:25:35;20.10;92.80
23769;DHT22;12064;50.890;5.424;2023-05-10T02:34:28;20.10;92.80
23769;DHT22;12064;50.890;5.424;2023-05-10T02:43:23;20.10;92.90
23769;DHT22;12064;50.890;5.424;2023-05-10T02:52:21;20.10;92.90
23769;DHT22;12064;50.890;5.424;2023-05-10T03:01:13;20.10;93.00
23769;DHT22;12064;50.890;5.424;2023-05-10T03:10:16;20.10;93.00
23769;DHT22;12064;50.890;5.424;2023-05-10T03:19:24;20.10;93.10
23769;DHT22;12064;50.890;5.424;2023-05-10T03:28:18;20.10;93.10
23769;DHT22;12064;50.890;5.424;2023-05-10T03:37:09;20.10;93.20
23769;DHT22;12064;50.890;5.424;2023-05-10T03:46:03;20.10;93.20
23769;DHT22;12064;50.890;5.424;2023-05-10T03:54:54;20.10;93.10
23769;DHT22;12064;50.890;5.424;2023-05-10T04:03:47;20.00;93.10
23769;DHT22;12064;50.890;5.424;2023-05-10T04:12:38;20.00;92.90
23769;DHT22;12064;50.890;5.424;2023-05-10T04:21:29;20.00;92.50
23769;DHT22;12064;50.890;5.424;2023-05-10T04:30:19;20.00;92.30
23769;DHT22;12064;50.890;5.424;2023-05-10T04:39:10;20.00;92.30
23769;DHT22;12064;50.890;5.424;2023-05-10T04:48:01;20.00;92.30
23769;DHT22;12064;50.890;5.424;2023-05-10T04:56:51;20.00;92.20
23769;DHT22;12064;50.890;5.424;2023-05-10T05:05:43;20.00;92.20
23769;DHT22;12064;50.890;5.424;2023-05-10T05:14:33;19.90;92.10
23769;DHT22;12064;50.890;5.424;2023-05-10T05:23:24;19.90;92.00
23769;DHT22;12064;50.890;5.424;2023-05-10T05:32:15;19.90;92.50
23769;DHT22;12064;50.890;5.424;2023-05-10T05:41:05;19.90;92.20
23769;DHT22;12064;50.890;5.424;2023-05-10T05:49:56;19.90;92.10
23769;DHT22;12064;50.890;5.424;2023-05-10T05:58:47;19.90;92.10
23769;DHT22;12064;50.890;5.424;2023-05-10T06:07:37;19.90;92.00
23769;DHT22;12064;50.890;5.424;2023-05-10T06:16:28;19.90;92.00
23769;DHT22;12064;50.890;5.424;2023-05-10T06:25:19;19.90;91.90
23769;DHT22;12064;50.890;5.424;2023-05-10T06:34:09;19.90;91.90
23769;DHT22;12064;50.890;5.424;2023-05-10T06:43:05;19.90;91.90
23769;DHT22;12064;50.890;5.424;2023-05-10T06:51:56;19.90;91.90
23769;DHT22;12064;50.890;5.424;2023-05-10T07:00:49;19.90;91.80
23769;DHT22;12064;50.890;5.424;2023-05-10T07:09:40;19.90;91.80
23769;DHT22;12064;50.890;5.424;2023-05-10T07:18:31;19.90;91.80
23769;DHT22;12064;50.890;5.424;2023-05-10T07:27:22;19.90;91.80
23769;DHT22;12064;50.890;5.424;2023-05-10T07:36:15;19.90;91.80
23769;DHT22;12064;50.890;5.424;2023-05-10T07:45:06;19.90;91.70
23769;DHT22;12064;50.890;5.424;2023-05-10T07:53:57;19.90;91.70
23769;DHT22;12064;50.890;5.424;2023-05-10T08:02:50;19.90;91.70
23769;DHT22;12064;50.890;5.424;2023-05-10T08:11:41;19.90;91.70
23769;DHT22;12064;50.890;5.424;2023-05-10T08:20:31;19.90;91.70
23769;DHT22;12064;50.890;5.424;2023-05-10T08:29:22;19.90;91.70
23769;DHT22;12064;50.890;5.424;2023-05-10T08:38:12;19.90;91.70
23769;DHT22;12064;50.890;5.424;2023-05-10T08:47:05;19.90;91.60
23769;DHT22;12064;50.890;5.424;2023-05-10T08:55:57;19.90;91.60
23769;DHT22;12064;50.890;5.424;2023-05-10T09:04:51;19.90;91.60
23769;DHT22;12064;50.890;5.424;2023-05-10T09:13:42;19.90;91.60
23769;DHT22;12064;50.890;5.424;2023-05-10T09:22:36;19.90;91.60
23769;DHT22;12064;50.890;5.424;2023-05-10T09:31:48;19.90;91.60
23769;DHT22;12064;50.890;5.424;2023-05-10T09:40:51;19.90;91.50
23769;DHT22;12064;50.890;5.424;2023-05-10T09:49:49;19.90;91.50
23769;DHT22;12064;50.890;5.424;2023-05-10T09:58:41;20.00;91.50
23769;DHT22;12064;50.890;5.424;2023-05-10T10:07:32;20.00;91.40
23769;DHT22;12064;50.890;5.424;2023-05-10T10:16:24;20.00;91.40
23769;DHT22;12064;50.890;5.424;2023-05-10T10:25:16;20.00;91.70
23769;DHT22;12064;50.890;5.424;2023-05-10T10:34:09;20.00;91.40
23769;DHT22;12064;50.890;5.424;2023-05-10T10:52:31;20.00;91.40
23769;DHT22;12064;50.890;5.424;2023-05-10T11:01:23;20.00;91.40
23769;DHT22;12064;50.890;5.424;2023-05-10T11:10:19;20.00;91.30
23769;DHT22;12064;50.890;5.424;2023-05-10T11:19:15;20.00;91.30
23769;DHT22;12064;50.890;5.424;2023-05-10T11:28:08;20.00;91.20
23769;DHT22;12064;50.890;5.424;2023-05-10T11:36:59;20.10;91.20
23769;DHT22;12064;50.890;5.424;2023-05-10T11:45:50;20.10;91.10
23769;DHT22;12064;50.890;5.424;2023-05-10T11:54:50;20.10;91.10
23769;DHT22;12064;50.890;5.424;2023-05-10T12:03:42;20.10;91.10
23769;DHT22;12064;50.890;5.424;2023-05-10T12:12:43;20.10;91.00
23769;DHT22;12064;50.890;5.424;2023-05-10T12:21:34;20.10;91.00
23769;DHT22;12064;50.890;5.424;2023-05-10T12:30:35;20.10;91.00
23769;DHT22;12064;50.890;5.424;2023-05-10T12:39:26;20.20;91.00
23769;DHT22;12064;50.890;5.424;2023-05-10T12:48:27;20.20;91.00
23769;DHT22;12064;50.890;5.424;2023-05-10T12:57:20;20.10;91.00
23769;DHT22;12064;50.890;5.424;2023-05-10T13:06:11;20.20;90.90
23769;DHT22;12064;50.890;5.424;2023-05-10T13:15:04;20.20;90.90
23769;DHT22;12064;50.890;5.424;2023-05-10T13:23:54;20.20;90.90
23769;DHT22;12064;50.890;5.424;2023-05-10T13:32:45;20.20;90.90
23769;DHT22;12064;50.890;5.424;2023-05-10T13:41:36;20.20;90.80
23769;DHT22;12064;50.890;5.424;2023-05-10T13:50:27;20.20;90.80
23769;DHT22;12064;50.890;5.424;2023-05-10T13:59:18;20.20;90.80
23769;DHT22;12064;50.890;5.424;2023-05-10T14:08:08;20.20;90.80
23769;DHT22;12064;50.890;5.424;2023-05-10T14:17:00;20.20;90.70
23769;DHT22;12064;50.890;5.424;2023-05-10T14:25:54;20.20;90.70
23769;DHT22;12064;50.890;5.424;2023-05-10T14:34:45;20.30;90.70
23769;DHT22;12064;50.890;5.424;2023-05-10T14:43:35;20.30;90.70
23769;DHT22;12064;50.890;5.424;2023-05-10T14:52:27;20.30;90.60
23769;DHT22;12064;50.890;5.424;2023-05-10T15:01:18;20.30;90.60
23769;DHT22;12064;50.890;5.424;2023-05-10T15:10:10;20.30;90.60
23769;DHT22;12064;50.890;5.424;2023-05-10T15:19:01;20.30;90.60
23769;DHT22;12064;50.890;5.424;2023-05-10T15:27:52;20.30;90.50
23769;DHT22;12064;50.890;5.424;2023-05-10T15:36:43;20.30;90.40
23769;DHT22;12064;50.890;5.424;2023-05-10T15:45:33;20.30;91.20
23769;DHT22;12064;50.890;5.424;2023-05-10T15:54:24;20.10;90.70
23769;DHT22;12064;50.890;5.424;2023-05-10T16:03:19;20.10;90.30
23769;DHT22;12064;50.890;5.424;2023-05-10T16:12:09;20.00;90.50
23769;DHT22;12064;50.890;5.424;2023-05-10T16:21:00;20.00;90.90
23769;DHT22;12064;50.890;5.424;2023-05-10T16:29:51;19.90;91.00
23769;DHT22;12064;50.890;5.424;2023-05-10T16:38:42;19.90;91.40
23769;DHT22;12064;50.890;5.424;2023-05-10T16:47:33;20.10;91.10
23769;DHT22;12064;50.890;5.424;2023-05-10T16:56:24;20.20;90.80
23769;DHT22;12064;50.890;5.424;2023-05-10T17:05:14;20.20;90.80
23769;DHT22;12064;50.890;5.424;2023-05-10T17:14:05;20.30;90.70
23769;DHT22;12064;50.890;5.424;2023-05-10T17:22:55;20.30;90.60
23769;DHT22;12064;50.890;5.424;2023-05-10T17:31:46;20.40;90.60
23769;DHT22;12064;50.890;5.424;2023-05-10T17:40:39;20.30;90.70
23769;DHT22;12064;50.890;5.424;2023-05-10T17:49:30;20.30;90.60
23769;DHT22;12064;50.890;5.424;2023-05-10T17:58:21;20.30;90.60
23769;DHT22;12064;50.890;5.424;2023-05-10T18:07:11;20.30;90.70
23769;DHT22;12064;50.890;5.424;2023-05-10T18:16:02;20.30;90.80
23769;DHT22;12064;50.890;5.424;2023-05-10T18:24:58;20.30;90.80
23769;DHT22;12064;50.890;5.424;2023-05-10T18:33:48;20.30;90.80
23769;DHT22;12064;50.890;5.424;2023-05-10T18:42:40;20.30;90.90
23769;DHT22;12064;50.890;5.424;2023-05-10T18:51:31;20.20;91.00
23769;DHT22;12064;50.890;5.424;2023-05-10T19:00:22;20.10;91.00
23769;DHT22;12064;50.890;5.424;2023-05-10T19:09:12;20.20;90.90
23769;DHT22;12064;50.890;5.424;2023-05-10T19:18:03;20.20;90.90
23769;DHT22;12064;50.890;5.424;2023-05-10T19:26:54;20.20;91.00
23769;DHT22;12064;50.890;5.424;2023-05-10T19:35:51;20.20;90.90
23769;DHT22;12064;50.890;5.424;2023-05-10T19:44:42;20.10;90.90
23769;DHT22;12064;50.890;5.424;2023-05-10T19:53:32;20.10;90.80
23769;DHT22;12064;50.890;5.424;2023-05-10T20:02:23;20.10;90.80
23769;DHT22;12064;50.890;5.424;2023-05-10T20:11:14;20.10;90.80
23769;DHT22;12064;50.890;5.424;2023-05-10T20:20:05;20.10;90.90
23769;DHT22;12064;50.890;5.424;2023-05-10T20:28:56;20.10;90.90
23769;DHT22;12064;50.890;5.424;2023-05-10T20:37:47;20.10;90.90
23769;DHT22;12064;50.890;5.424;2023-05-10T20:46:38;20.10;90.90
23769;DHT22;12064;50.890;5.424;2023-05-10T20:55:28;20.10;91.30
23769;DHT22;12064;50.890;5.424;2023-05-10T21:04:19;20.00;91.00
23769;DHT22;12064;50.890;5.424;2023-05-10T21:13:10;20.00;91.00
23769;DHT22;12064;50.890;5.424;2023-05-10T21:22:02;20.00;91.10
23769;DHT22;12064;50.890;5.424;2023-05-10T21:30:52;20.00;91.10
23769;DHT22;12064;50.890;5.424;2023-05-10T21:39:43;20.00;91.20
23769;DHT22;12064;50.890;5.424;2023-05-10T21:48:34;20.00;91.30
23769;DHT22;12064;50.890;5.424;2023-05-10T21:57:25;19.90;91.40
23769;DHT22;12064;50.890;5.424;2023-05-10T22:06:16;19.90;91.50
23769;DHT22;12064;50.890;5.424;2023-05-10T22:15:07;19.90;91.50
23769;DHT22;12064;50.890;5.424;2023-05-10T22:24:00;19.90;91.70
23769;DHT22;12064;50.890;5.424;2023-05-10T22:32:51;19.90;91.70
23769;DHT22;12064;50.890;5.424;2023-05-10T22:41:42;19.90;91.80
23769;DHT22;12064;50.890;5.424;2023-05-10T22:50:32;19.90;91.80
23769;DHT22;12064;50.890;5.424;2023-05-10T22:59:23;19.90;91.90
23769;DHT22;12064;50.890;5.424;2023-05-10T23:08:14;19.80;91.90
23769;DHT22;12064;50.890;5.424;2023-05-10T23:17:04;19.80;92.00
23769;DHT22;12064;50.890;5.424;2023-05-10T23:25:55;19.80;92.10
23769;DHT22;12064;50.890;5.424;2023-05-10T23:34:46;19.80;92.20
23769;DHT22;12064;50.890;5.424;2023-05-10T23:43:36;19.80;92.20
23769;DHT22;12064;50.890;5.424;2023-05-10T23:52:28;19.80;92.30
